createdAt,value
2018-09-23T00:00:45.686Z,9.96
2018-09-23T00:01:45.704Z,10.03
2018-09-23T00:02:45.901Z,10.03
2018-09-23T00:03:45.617Z,9.96
2018-09-23T00:04:45.582Z,10.04
2018-09-23T00:05:45.650Z,10
2018-09-23T00:06:45.660Z,9.99
2018-09-23T00:07:45.657Z,10.08
2018-09-23T00:08:45.799Z,10.07
2018-09-23T00:09:45.704Z,10.08
2018-09-23T00:10:45.591Z,10.01
2018-09-23T00:11:45.840Z,9.97
2018-09-23T00:12:45.591Z,10.04
2018-09-23T00:13:45.745Z,10.02
2018-09-23T00:14:45.790Z,9.98
2018-09-23T00:15:45.613Z,10.02
2018-09-23T00:16:45.614Z,10.05
2018-09-23T00:17:45.608Z,10.14
2018-09-23T00:18:45.691Z,10.01
2018-09-23T00:19:45.852Z,9.92
2018-09-23T00:20:45.565Z,9.97
2018-09-23T00:21:45.814Z,9.93
2018-09-23T00:22:45.837Z,9.99
2018-09-23T00:23:45.577Z,9.94
2018-09-23T00:24:45.580Z,9.94
2018-09-23T00:25:45.692Z,9.9
2018-09-23T00:26:45.601Z,9.96
2018-09-23T00:27:45.681Z,9.93
2018-09-23T00:28:45.675Z,9.92
2018-09-23T00:29:45.671Z,9.95
2018-09-23T00:30:45.577Z,9.95
2018-09-23T00:31:45.624Z,9.88
2018-09-23T00:32:45.621Z,9.96
2018-09-23T00:33:45.541Z,9.98
2018-09-23T00:34:45.566Z,10.04
2018-09-23T00:35:45.572Z,10.04
2018-09-23T00:36:45.559Z,10.1
2018-09-23T00:37:45.726Z,10.07
2018-09-23T00:38:45.543Z,10.1
2018-09-23T00:39:45.646Z,10.03
2018-09-23T00:40:45.547Z,9.97
2018-09-23T00:41:45.548Z,9.95
2018-09-23T00:42:45.555Z,10.13
2018-09-23T00:43:45.564Z,10.11
2018-09-23T00:44:45.531Z,10.09
2018-09-23T00:45:45.583Z,10.16
2018-09-23T00:46:45.531Z,10.12
2018-09-23T00:47:45.526Z,10.08
2018-09-23T00:48:45.524Z,10.17
2018-09-23T00:49:45.541Z,10.19
2018-09-23T00:50:45.563Z,10.23
2018-09-23T00:51:45.523Z,10.29
2018-09-23T00:52:45.553Z,10.27
2018-09-23T00:53:45.661Z,10.24
2018-09-23T00:54:45.644Z,10.2
2018-09-23T00:55:45.942Z,10.14
2018-09-23T00:56:45.570Z,10.11
2018-09-23T00:57:45.651Z,10.1
2018-09-23T00:58:45.536Z,10.09
2018-09-23T00:59:45.516Z,10.1
2018-09-23T01:00:45.698Z,10.4
2018-09-23T01:01:45.536Z,10.44
2018-09-23T01:02:45.510Z,10.32
2018-09-23T01:03:45.600Z,10.24
2018-09-23T01:04:45.544Z,10.22
2018-09-23T01:05:45.743Z,10.25
2018-09-23T01:06:45.519Z,10.47
2018-09-23T01:07:45.642Z,10.39
2018-09-23T01:08:45.543Z,10.32
2018-09-23T01:09:45.692Z,10.32
2018-09-23T01:10:46.086Z,10.25
2018-09-23T01:11:45.723Z,10.36
2018-09-23T01:12:45.592Z,10.34
2018-09-23T01:13:45.536Z,10.26
2018-09-23T01:14:45.646Z,10.26
2018-09-23T01:15:45.526Z,10.28
2018-09-23T01:16:45.653Z,10.23
2018-09-23T01:17:45.572Z,10.25
2018-09-23T01:18:45.480Z,10.29
2018-09-23T01:19:45.486Z,10.24
2018-09-23T01:20:45.593Z,10.23
2018-09-23T01:21:45.527Z,10.51
2018-09-23T01:22:45.571Z,10.36
2018-09-23T01:23:45.503Z,10.32
2018-09-23T01:24:45.483Z,10.24
2018-09-23T01:25:45.490Z,10.36
2018-09-23T01:26:45.507Z,10.27
2018-09-23T01:27:45.559Z,10.31
2018-09-23T01:28:45.527Z,10.33
2018-09-23T01:29:45.509Z,10.25
2018-09-23T01:30:45.598Z,10.29
2018-09-23T01:31:45.496Z,10.28
2018-09-23T01:32:45.541Z,10.27
2018-09-23T01:33:45.682Z,10.2
2018-09-23T01:34:45.494Z,10.21
2018-09-23T01:35:45.559Z,10.26
2018-09-23T01:36:45.548Z,10.22
2018-09-23T01:37:45.486Z,10.18
2018-09-23T01:38:45.662Z,10.16
2018-09-23T01:39:45.517Z,10.17
2018-09-23T01:40:45.525Z,10.23
2018-09-23T01:41:46.170Z,10.23
2018-09-23T01:42:45.572Z,10.25
2018-09-23T01:43:45.486Z,10.29
2018-09-23T01:44:45.586Z,10.26
2018-09-23T01:45:45.454Z,10.26
2018-09-23T01:46:45.498Z,10.3
2018-09-23T01:47:45.450Z,10.28
2018-09-23T01:48:46.347Z,10.23
2018-09-23T01:49:45.520Z,10.27
2018-09-23T01:50:45.527Z,10.27
2018-09-23T01:51:45.449Z,10.2
2018-09-23T01:52:45.578Z,10.23
2018-09-23T01:53:45.447Z,10.23
2018-09-23T01:54:45.452Z,10.2
2018-09-23T01:55:45.611Z,10.29
2018-09-23T01:56:45.461Z,10.29
2018-09-23T01:57:45.506Z,10.26
2018-09-23T01:58:45.448Z,10.22
2018-09-23T01:59:45.704Z,10.13
2018-09-23T02:00:45.446Z,10.16
2018-09-23T02:01:45.650Z,10.16
2018-09-23T02:02:45.448Z,10.17
2018-09-23T02:03:45.485Z,10.14
2018-09-23T02:04:45.423Z,10.16
2018-09-23T02:05:45.441Z,10.17
2018-09-23T02:06:45.437Z,10.16
2018-09-23T02:07:45.510Z,10.15
2018-09-23T02:08:45.457Z,10.15
2018-09-23T02:09:45.404Z,10.16
2018-09-23T02:10:45.504Z,10.15
2018-09-23T02:11:45.448Z,10.2
2018-09-23T02:12:45.453Z,10.19
2018-09-23T02:13:45.443Z,10.14
2018-09-23T02:14:45.493Z,10.2
2018-09-23T02:15:45.539Z,10.16
2018-09-23T02:16:45.471Z,10.17
2018-09-23T02:17:45.519Z,10.17
2018-09-23T02:18:45.905Z,10.11
2018-09-23T02:19:45.433Z,10.13
2018-09-23T02:20:45.479Z,10.11
2018-09-23T02:21:45.446Z,10.1
2018-09-23T02:22:45.594Z,10.11
2018-09-23T02:23:45.671Z,10.15
2018-09-23T02:24:45.410Z,10.14
2018-09-23T02:25:45.442Z,10.13
2018-09-23T02:26:45.468Z,10.09
2018-09-23T02:27:45.974Z,10.18
2018-09-23T02:28:46.173Z,10.11
2018-09-23T02:29:45.419Z,10.12
2018-09-23T02:30:45.394Z,10.04
2018-09-23T02:31:45.413Z,10.04
2018-09-23T02:32:45.460Z,10.1
2018-09-23T02:33:45.548Z,10.05
2018-09-23T02:34:45.566Z,10.05
2018-09-23T02:35:45.389Z,10.07
2018-09-23T02:36:45.381Z,10.08
2018-09-23T02:37:45.434Z,10.09
2018-09-23T02:38:45.418Z,10.06
2018-09-23T02:39:45.603Z,10.06
2018-09-23T02:40:45.385Z,10.08
2018-09-23T02:41:45.417Z,10.1
2018-09-23T02:42:45.546Z,10.05
2018-09-23T02:43:45.404Z,10.12
2018-09-23T02:44:45.433Z,10.07
2018-09-23T02:45:45.441Z,10.07
2018-09-23T02:46:45.443Z,10.06
2018-09-23T02:47:45.527Z,10.02
2018-09-23T02:48:45.346Z,10.1
2018-09-23T02:49:45.398Z,10.17
2018-09-23T02:50:45.513Z,10.09
2018-09-23T02:51:45.372Z,10.1
2018-09-23T02:52:45.407Z,10.07
2018-09-23T02:53:45.467Z,10.09
2018-09-23T02:54:45.476Z,10.1
2018-09-23T02:55:45.355Z,10.1
2018-09-23T02:56:45.404Z,10.14
2018-09-23T02:57:45.394Z,10.14
2018-09-23T02:58:45.540Z,10.12
2018-09-23T02:59:45.564Z,10.1
2018-09-23T03:00:45.444Z,10.11
2018-09-23T03:01:45.360Z,10.09
2018-09-23T03:02:45.624Z,10.08
2018-09-23T03:03:45.369Z,10.02
2018-09-23T03:04:45.752Z,10.08
2018-09-23T03:05:45.735Z,10.12
2018-09-23T03:06:45.355Z,10.11
2018-09-23T03:07:45.980Z,10.09
2018-09-23T03:08:45.522Z,10.04
2018-09-23T03:09:45.369Z,10.12
2018-09-23T03:10:45.385Z,10.12
2018-09-23T03:11:45.368Z,10.11
2018-09-23T03:12:45.512Z,10.08
2018-09-23T03:13:45.508Z,10.11
2018-09-23T03:14:45.338Z,10.1
2018-09-23T03:15:45.335Z,10.14
2018-09-23T03:16:45.315Z,10.11
2018-09-23T03:17:45.396Z,10.14
2018-09-23T03:18:45.355Z,10.15
2018-09-23T03:19:45.320Z,10.14
2018-09-23T03:20:45.354Z,10.18
2018-09-23T03:21:45.360Z,10.15
2018-09-23T03:22:45.371Z,10.14
2018-09-23T03:23:45.392Z,10.08
2018-09-23T03:24:45.373Z,10.17
2018-09-23T03:25:45.379Z,10.16
2018-09-23T03:26:45.402Z,10.17
2018-09-23T03:27:45.364Z,10.17
2018-09-23T03:28:45.335Z,10.18
2018-09-23T03:29:45.352Z,10.14
2018-09-23T03:30:45.368Z,10.16
2018-09-23T03:31:45.349Z,10.16
2018-09-23T03:32:45.317Z,10.17
2018-09-23T03:33:45.310Z,10.14
2018-09-23T03:34:45.342Z,10.16
2018-09-23T03:35:45.358Z,10.17
2018-09-23T03:36:45.326Z,10.18
2018-09-23T03:37:45.481Z,10.17
2018-09-23T03:38:45.338Z,10.14
2018-09-23T03:39:45.526Z,10.1
2018-09-23T03:40:45.346Z,10.09
2018-09-23T03:41:45.353Z,10.11
2018-09-23T03:42:45.709Z,10.15
2018-09-23T03:43:45.556Z,10.15
2018-09-23T03:44:45.320Z,10.16
2018-09-23T03:45:45.376Z,10.15
2018-09-23T03:46:45.325Z,10.14
2018-09-23T03:47:45.380Z,10.19
2018-09-23T03:48:45.441Z,10.14
2018-09-23T03:49:45.306Z,10.1
2018-09-23T03:50:45.467Z,10.11
2018-09-23T03:51:45.317Z,10.16
2018-09-23T03:52:45.378Z,10.15
2018-09-23T03:53:46.663Z,10.14
2018-09-23T03:54:45.331Z,10.22
2018-09-23T03:55:45.337Z,10.19
2018-09-23T03:56:45.330Z,10.24
2018-09-23T03:57:45.312Z,10.21
2018-09-23T03:58:45.428Z,10.24
2018-09-23T03:59:45.336Z,10.17
2018-09-23T04:00:45.331Z,10.22
2018-09-23T04:01:45.284Z,10.2
2018-09-23T04:02:45.287Z,10.21
2018-09-23T04:03:45.346Z,10.21
2018-09-23T04:04:45.334Z,10.21
2018-09-23T04:05:45.400Z,10.2
2018-09-23T04:06:45.434Z,10.16
2018-09-23T04:07:45.358Z,10.16
2018-09-23T04:08:45.813Z,10.22
2018-09-23T04:09:45.299Z,10.19
2018-09-23T04:10:45.317Z,10.2
2018-09-23T04:11:45.481Z,10.21
2018-09-23T04:12:45.458Z,10.14
2018-09-23T04:13:45.491Z,10.19
2018-09-23T04:14:45.300Z,10.19
2018-09-23T04:15:45.275Z,10.18
2018-09-23T04:16:45.273Z,10.18
2018-09-23T04:17:45.275Z,10.17
2018-09-23T04:18:45.439Z,10.17
2018-09-23T04:19:45.266Z,10.2
2018-09-23T04:20:45.305Z,10.19
2018-09-23T04:21:45.290Z,10.21
2018-09-23T04:22:45.349Z,10.25
2018-09-23T04:23:45.373Z,10.22
2018-09-23T04:24:45.337Z,10.23
2018-09-23T04:25:45.992Z,10.22
2018-09-23T04:26:45.386Z,10.19
2018-09-23T04:27:45.376Z,10.19
2018-09-23T04:28:45.305Z,10.2
2018-09-23T04:29:45.337Z,10.22
2018-09-23T04:30:45.242Z,10.2
2018-09-23T04:31:45.490Z,10.2
2018-09-23T04:32:45.516Z,10.2
2018-09-23T04:33:45.320Z,10.18
2018-09-23T04:34:45.570Z,10.18
2018-09-23T04:35:45.317Z,10.21
2018-09-23T04:36:45.274Z,10.26
2018-09-23T04:37:45.245Z,10.22
2018-09-23T04:38:45.402Z,10.26
2018-09-23T04:39:45.265Z,10.22
2018-09-23T04:40:45.246Z,10.23
2018-09-23T04:41:45.528Z,10.23
2018-09-23T04:42:45.252Z,10.24
2018-09-23T04:43:45.221Z,10.27
2018-09-23T04:44:45.578Z,10.23
2018-09-23T04:45:45.268Z,10.21
2018-09-23T04:46:45.284Z,10.23
2018-09-23T04:47:45.209Z,10.21
2018-09-23T04:48:45.198Z,10.28
2018-09-23T04:49:45.238Z,10.26
2018-09-23T04:50:45.230Z,10.27
2018-09-23T04:51:45.207Z,10.25
2018-09-23T04:52:45.250Z,10.24
2018-09-23T04:53:45.488Z,10.25
2018-09-23T04:54:45.248Z,10.23
2018-09-23T04:55:45.252Z,10.2
2018-09-23T04:56:45.215Z,10.28
2018-09-23T04:57:45.290Z,10.29
2018-09-23T04:58:45.206Z,10.29
2018-09-23T04:59:45.221Z,10.29
2018-09-23T05:00:45.856Z,10.27
2018-09-23T05:01:45.391Z,10.29
2018-09-23T05:02:45.266Z,10.29
2018-09-23T05:03:45.219Z,10.26
2018-09-23T05:04:45.254Z,10.3
2018-09-23T05:05:45.326Z,10.29
2018-09-23T05:06:45.430Z,10.31
2018-09-23T05:07:45.229Z,10.36
2018-09-23T05:08:48.976Z,10.32
2018-09-23T05:09:45.203Z,10.36
2018-09-23T05:10:45.417Z,10.35
2018-09-23T05:11:46.049Z,10.35
2018-09-23T05:12:45.286Z,10.38
2018-09-23T05:13:45.233Z,10.37
2018-09-23T05:14:45.210Z,10.46
2018-09-23T05:15:45.213Z,10.45
2018-09-23T05:16:45.189Z,10.45
2018-09-23T05:17:45.195Z,10.47
2018-09-23T05:18:45.780Z,10.5
2018-09-23T05:19:45.544Z,10.49
2018-09-23T05:20:45.253Z,10.46
2018-09-23T05:21:45.158Z,10.52
2018-09-23T05:22:45.306Z,10.51
2018-09-23T05:23:45.265Z,10.52
2018-09-23T05:24:45.249Z,10.55
2018-09-23T05:25:45.227Z,10.58
2018-09-23T05:26:45.335Z,10.59
2018-09-23T05:27:45.199Z,10.6
2018-09-23T05:28:45.415Z,10.62
2018-09-23T05:29:45.156Z,10.66
2018-09-23T05:30:45.141Z,10.64
2018-09-23T05:31:45.316Z,10.64
2018-09-23T05:32:45.234Z,10.6
2018-09-23T05:33:45.158Z,10.64
2018-09-23T05:34:45.397Z,10.65
2018-09-23T05:35:45.299Z,10.66
2018-09-23T05:36:45.241Z,10.64
2018-09-23T05:37:45.157Z,10.7
2018-09-23T05:38:45.166Z,10.72
2018-09-23T05:39:45.214Z,10.69
2018-09-23T05:40:49.472Z,10.73
2018-09-23T05:41:45.177Z,10.66
2018-09-23T05:42:45.199Z,10.71
2018-09-23T05:43:45.178Z,10.7
2018-09-23T05:44:45.298Z,10.71
2018-09-23T05:45:45.242Z,10.74
2018-09-23T05:46:45.248Z,10.72
2018-09-23T05:47:45.169Z,10.76
2018-09-23T05:48:45.258Z,10.68
2018-09-23T05:49:45.150Z,10.74
2018-09-23T05:50:45.112Z,10.71
2018-09-23T05:51:45.743Z,10.71
2018-09-23T05:52:45.261Z,10.73
2018-09-23T05:53:45.178Z,10.71
2018-09-23T05:54:45.158Z,10.72
2018-09-23T05:55:45.317Z,10.8
2018-09-23T05:56:45.177Z,10.81
2018-09-23T05:57:45.205Z,10.76
2018-09-23T05:58:45.224Z,10.75
2018-09-23T05:59:45.114Z,10.78
2018-09-23T06:00:45.142Z,10.89
2018-09-23T06:01:45.402Z,10.86
2018-09-23T06:02:45.174Z,10.87
2018-09-23T06:03:45.190Z,10.81
2018-09-23T06:04:45.104Z,10.87
2018-09-23T06:05:45.197Z,11.04
2018-09-23T06:06:45.101Z,10.96
2018-09-23T06:07:45.229Z,11
2018-09-23T06:08:45.535Z,10.98
2018-09-23T06:09:45.169Z,10.93
2018-09-23T06:10:45.157Z,10.9
2018-09-23T06:11:45.101Z,10.91
2018-09-23T06:12:45.181Z,11.01
2018-09-23T06:13:45.097Z,11.04
2018-09-23T06:14:45.124Z,10.96
2018-09-23T06:15:45.165Z,11.1
2018-09-23T06:16:45.129Z,11.2
2018-09-23T06:17:45.137Z,11.07
2018-09-23T06:18:45.120Z,11.15
2018-09-23T06:19:45.139Z,11.2
2018-09-23T06:20:45.191Z,11.12
2018-09-23T06:21:45.114Z,11.07
2018-09-23T06:22:45.125Z,11.02
2018-09-23T06:23:45.260Z,11.07
2018-09-23T06:24:45.115Z,11.07
2018-09-23T06:25:45.198Z,11
2018-09-23T06:26:45.280Z,11.02
2018-09-23T06:27:45.114Z,11.06
2018-09-23T06:28:45.191Z,11.11
2018-09-23T06:29:45.082Z,11.26
2018-09-23T06:30:45.118Z,11.16
2018-09-23T06:31:45.121Z,11.32
2018-09-23T06:32:45.171Z,11.37
2018-09-23T06:33:45.201Z,11.24
2018-09-23T06:34:45.339Z,11.33
2018-09-23T06:35:45.369Z,11.26
2018-09-23T06:36:45.223Z,11.47
2018-09-23T06:37:45.256Z,11.4
2018-09-23T06:38:45.740Z,11.38
2018-09-23T06:39:45.040Z,11.54
2018-09-23T06:40:45.513Z,11.51
2018-09-23T06:41:45.179Z,11.47
2018-09-23T06:42:45.069Z,11.48
2018-09-23T06:43:47.314Z,11.53
2018-09-23T06:44:45.150Z,11.59
2018-09-23T06:45:46.092Z,11.56
2018-09-23T06:46:45.046Z,11.57
2018-09-23T06:47:45.250Z,11.57
2018-09-23T06:48:45.200Z,11.5
2018-09-23T06:49:45.083Z,11.57
2018-09-23T06:50:45.064Z,11.54
2018-09-23T06:51:45.179Z,11.7
2018-09-23T06:52:45.148Z,11.6
2018-09-23T06:53:45.215Z,11.65
2018-09-23T06:54:45.171Z,11.58
2018-09-23T06:55:45.807Z,11.77
2018-09-23T06:56:45.338Z,11.78
2018-09-23T06:57:45.035Z,11.76
2018-09-23T06:58:45.101Z,11.67
2018-09-23T06:59:45.041Z,11.68
2018-09-23T07:00:45.217Z,11.77
2018-09-23T07:01:45.190Z,11.74
2018-09-23T07:02:45.179Z,11.69
2018-09-23T07:03:45.193Z,11.83
2018-09-23T07:04:45.984Z,11.84
2018-09-23T07:05:45.235Z,11.85
2018-09-23T07:06:45.038Z,11.77
2018-09-23T07:07:45.217Z,11.86
2018-09-23T07:08:45.316Z,11.83
2018-09-23T07:09:45.324Z,11.92
2018-09-23T07:10:45.252Z,11.89
2018-09-23T07:11:45.038Z,11.88
2018-09-23T07:12:45.254Z,11.88
2018-09-23T07:13:45.188Z,11.89
2018-09-23T07:14:45.466Z,11.91
2018-09-23T07:15:45.066Z,11.98
2018-09-23T07:16:45.189Z,11.98
2018-09-23T07:17:45.236Z,11.96
2018-09-23T07:18:45.057Z,12.09
2018-09-23T07:19:45.197Z,12
2018-09-23T07:20:45.129Z,11.97
2018-09-23T07:21:45.073Z,12.06
2018-09-23T07:22:45.052Z,12.02
2018-09-23T07:23:45.770Z,11.97
2018-09-23T07:24:45.064Z,12.01
2018-09-23T07:25:45.144Z,12.03
2018-09-23T07:26:45.004Z,11.98
2018-09-23T07:27:45.391Z,12
2018-09-23T07:28:45.087Z,11.97
2018-09-23T07:29:45.026Z,12.05
2018-09-23T07:30:45.105Z,12.06
2018-09-23T07:31:45.119Z,12.06
2018-09-23T07:32:45.051Z,12.12
2018-09-23T07:33:45.095Z,12.16
2018-09-23T07:34:44.992Z,12.06
2018-09-23T07:35:45.104Z,12.13
2018-09-23T07:36:45.685Z,12.18
2018-09-23T07:37:45.064Z,12.2
2018-09-23T07:38:45.132Z,12.17
2018-09-23T07:39:45.346Z,12.3
2018-09-23T07:40:44.993Z,12.23
2018-09-23T07:41:44.977Z,12.28
2018-09-23T07:42:45.114Z,12.34
2018-09-23T07:43:45.054Z,12.35
2018-09-23T07:44:45.203Z,12.27
2018-09-23T07:45:45.076Z,12.25
2018-09-23T07:46:45.116Z,12.28
2018-09-23T07:47:45.265Z,12.32
2018-09-23T07:48:45.093Z,12.31
2018-09-23T07:49:45.194Z,12.39
2018-09-23T07:50:45.455Z,12.38
2018-09-23T07:51:45.140Z,12.4
2018-09-23T07:52:45.088Z,12.47
2018-09-23T07:53:45.151Z,12.61
2018-09-23T07:54:45.508Z,12.6
2018-09-23T07:55:45.404Z,12.69
2018-09-23T07:56:45.148Z,12.67
2018-09-23T07:57:45.215Z,12.74
2018-09-23T07:58:46.187Z,12.78
2018-09-23T07:59:45.037Z,12.69
2018-09-23T08:00:45.114Z,12.87
2018-09-23T08:01:46.176Z,12.89
2018-09-23T08:02:45.159Z,12.91
2018-09-23T08:03:45.612Z,12.95
2018-09-23T08:04:44.985Z,12.97
2018-09-23T08:05:44.962Z,12.93
2018-09-23T08:06:46.177Z,12.99
2018-09-23T08:07:45.127Z,13.01
2018-09-23T08:08:45.095Z,13.04
2018-09-23T08:09:45.029Z,13.1
2018-09-23T08:10:45.200Z,13.07
2018-09-23T08:11:45.630Z,13.09
2018-09-23T08:12:46.845Z,13.16
2018-09-23T08:13:46.763Z,13.07
2018-09-23T08:14:49.718Z,13.21
2018-09-23T08:15:45.060Z,13.22
2018-09-23T08:16:45.129Z,13.22
2018-09-23T08:17:44.966Z,13.29
2018-09-23T08:18:45.303Z,13.25
2018-09-23T08:19:47.233Z,13.4
2018-09-23T08:20:45.354Z,13.39
2018-09-23T08:21:45.095Z,13.3
2018-09-23T08:22:45.073Z,13.46
2018-09-23T08:23:45.203Z,13.4
2018-09-23T08:24:44.947Z,13.44
2018-09-23T08:25:45.894Z,13.43
2018-09-23T08:26:44.954Z,13.4
2018-09-23T08:27:45.011Z,13.46
2018-09-23T08:28:44.975Z,13.49
2018-09-23T08:29:44.913Z,13.46
2018-09-23T08:30:44.946Z,13.36
2018-09-23T08:31:45.566Z,13.51
2018-09-23T08:32:45.359Z,13.52
2018-09-23T08:33:52.013Z,13.44
2018-09-23T08:34:45.188Z,13.35
2018-09-23T08:35:44.957Z,13.39
2018-09-23T08:36:45.100Z,13.49
2018-09-23T08:37:45.116Z,13.38
2018-09-23T08:38:44.906Z,13.41
2018-09-23T08:39:45.532Z,13.48
2018-09-23T08:40:44.960Z,13.44
2018-09-23T08:41:44.947Z,13.48
2018-09-23T08:42:45.189Z,13.52
2018-09-23T08:43:45.229Z,13.51
2018-09-23T08:44:45.012Z,13.48
2018-09-23T08:45:45.081Z,13.41
2018-09-23T08:46:44.882Z,13.44
2018-09-23T08:47:45.065Z,13.37
2018-09-23T08:48:44.840Z,13.61
2018-09-23T08:49:44.894Z,13.54
2018-09-23T08:50:44.920Z,13.58
2018-09-23T08:51:45.275Z,13.57
2018-09-23T08:52:44.905Z,13.53
2018-09-23T08:53:44.917Z,13.55
2018-09-23T08:54:44.921Z,13.51
2018-09-23T08:55:44.901Z,13.53
2018-09-23T08:56:44.959Z,13.55
2018-09-23T08:57:45.427Z,13.63
2018-09-23T08:58:45.044Z,13.62
2018-09-23T08:59:44.884Z,13.65
2018-09-23T09:00:44.925Z,13.66
2018-09-23T09:01:44.886Z,13.63
2018-09-23T09:02:44.915Z,13.63
2018-09-23T09:03:45.611Z,13.61
2018-09-23T09:04:44.908Z,13.64
2018-09-23T09:05:44.935Z,13.64
2018-09-23T09:06:44.933Z,13.67
2018-09-23T09:07:44.910Z,13.63
2018-09-23T09:08:44.931Z,13.68
2018-09-23T09:09:44.890Z,13.66
2018-09-23T09:10:45.154Z,13.7
2018-09-23T09:11:45.498Z,13.73
2018-09-23T09:12:44.867Z,13.71
2018-09-23T09:13:44.909Z,13.74
2018-09-23T09:14:44.874Z,13.78
2018-09-23T09:15:50.416Z,13.78
2018-09-23T09:16:45.193Z,13.76
2018-09-23T09:17:45.075Z,13.7
2018-09-23T09:18:46.846Z,13.76
2018-09-23T09:19:44.868Z,13.76
2018-09-23T09:20:46.306Z,13.71
2018-09-23T09:21:45.138Z,13.76
2018-09-23T09:22:44.892Z,13.78
2018-09-23T09:23:45.129Z,13.79
2018-09-23T09:24:44.920Z,13.84
2018-09-23T09:25:44.904Z,13.83
2018-09-23T09:26:46.040Z,13.82
2018-09-23T09:27:45.124Z,13.85
2018-09-23T09:28:44.926Z,13.86
2018-09-23T09:29:45.242Z,13.86
2018-09-23T09:30:45.042Z,13.82
2018-09-23T09:31:45.043Z,13.79
2018-09-23T09:32:45.040Z,13.81
2018-09-23T09:33:45.266Z,13.83
2018-09-23T09:34:44.997Z,13.77
2018-09-23T09:35:45.182Z,13.8
2018-09-23T09:36:45.151Z,13.83
2018-09-23T09:37:44.875Z,13.82
2018-09-23T09:38:45.024Z,13.79
2018-09-23T09:39:45.010Z,13.83
2018-09-23T09:40:45.099Z,13.83
2018-09-23T09:41:45.010Z,13.82
2018-09-23T09:42:44.920Z,13.78
2018-09-23T09:43:45.729Z,13.8
2018-09-23T09:44:45.333Z,13.86
2018-09-23T09:45:45.224Z,13.85
2018-09-23T09:46:45.054Z,13.89
2018-09-23T09:47:45.026Z,13.87
2018-09-23T09:48:45.229Z,13.9
2018-09-23T09:49:45.101Z,13.91
2018-09-23T09:50:45.592Z,13.79
2018-09-23T09:51:45.373Z,13.92
2018-09-23T09:52:45.091Z,13.94
2018-09-23T09:53:44.865Z,13.97
2018-09-23T09:54:44.972Z,13.96
2018-09-23T09:55:45.203Z,13.94
2018-09-23T09:56:44.990Z,13.97
2018-09-23T09:57:45.111Z,14.01
2018-09-23T09:58:45.511Z,14.01
2018-09-23T09:59:45.057Z,13.97
2018-09-23T10:00:45.328Z,14.03
2018-09-23T10:01:44.884Z,14.01
2018-09-23T10:02:44.953Z,14.06
2018-09-23T10:03:45.166Z,14.06
2018-09-23T10:04:45.179Z,14.03
2018-09-23T10:05:44.983Z,14.08
2018-09-23T10:06:44.986Z,14.11
2018-09-23T10:07:44.845Z,14.09
2018-09-23T10:08:45.122Z,14.17
2018-09-23T10:09:45.599Z,14.14
2018-09-23T10:10:44.903Z,14.19
2018-09-23T10:11:45.101Z,14.24
2018-09-23T10:12:44.887Z,14.24
2018-09-23T10:13:44.835Z,14.23
2018-09-23T10:14:45.019Z,14.29
2018-09-23T10:15:44.830Z,14.29
2018-09-23T10:16:44.801Z,14.2
2018-09-23T10:17:45.059Z,14.34
2018-09-23T10:18:44.768Z,14.33
2018-09-23T10:19:45.220Z,14.26
2018-09-23T10:20:45.076Z,14.25
2018-09-23T10:21:44.822Z,14.26
2018-09-23T10:22:46.322Z,14.29
2018-09-23T10:23:46.879Z,14.26
2018-09-23T10:24:44.793Z,14.27
2018-09-23T10:25:44.866Z,14.29
2018-09-23T10:26:44.776Z,14.31
2018-09-23T10:27:44.832Z,14.28
2018-09-23T10:28:45.013Z,14.26
2018-09-23T10:29:45.520Z,14.25
2018-09-23T10:30:44.761Z,14.31
2018-09-23T10:31:45.403Z,14.27
2018-09-23T10:32:44.961Z,14.29
2018-09-23T10:33:44.840Z,14.33
2018-09-23T10:34:44.913Z,14.29
2018-09-23T10:35:45.997Z,14.32
2018-09-23T10:36:44.952Z,14.32
2018-09-23T10:37:44.916Z,14.29
2018-09-23T10:38:44.889Z,14.31
2018-09-23T10:39:44.789Z,14.3
2018-09-23T10:40:44.844Z,14.37
2018-09-23T10:41:45.924Z,14.39
2018-09-23T10:42:44.918Z,14.41
2018-09-23T10:43:44.781Z,14.47
2018-09-23T10:44:44.798Z,14.37
2018-09-23T10:45:45.339Z,14.35
2018-09-23T10:46:44.851Z,14.34
2018-09-23T10:47:44.911Z,14.35
2018-09-23T10:48:44.858Z,14.4
2018-09-23T10:49:44.915Z,14.41
2018-09-23T10:50:44.960Z,14.39
2018-09-23T10:51:44.853Z,14.44
2018-09-23T10:52:44.902Z,14.39
2018-09-23T10:53:44.711Z,14.43
2018-09-23T10:54:44.798Z,14.4
2018-09-23T10:55:45.509Z,14.4
2018-09-23T10:56:44.775Z,14.38
2018-09-23T10:57:44.829Z,14.45
2018-09-23T10:58:44.824Z,14.46
2018-09-23T10:59:45.947Z,14.41
2018-09-23T11:00:44.802Z,14.44
2018-09-23T11:01:45.265Z,14.4
2018-09-23T11:02:48.352Z,14.43
2018-09-23T11:03:45.224Z,14.42
2018-09-23T11:04:44.788Z,14.42
2018-09-23T11:05:44.752Z,14.4
2018-09-23T11:06:44.882Z,14.48
2018-09-23T11:07:44.747Z,14.5
2018-09-23T11:08:44.880Z,14.49
2018-09-23T11:09:45.377Z,14.48
2018-09-23T11:10:44.729Z,14.44
2018-09-23T11:11:45.354Z,14.47
2018-09-23T11:12:44.761Z,14.51
2018-09-23T11:13:44.750Z,14.51
2018-09-23T11:14:44.861Z,14.48
2018-09-23T11:15:44.874Z,14.54
2018-09-23T11:16:45.044Z,14.53
2018-09-23T11:17:44.734Z,14.45
2018-09-23T11:18:44.893Z,14.46
2018-09-23T11:19:44.791Z,14.49
2018-09-23T11:20:44.730Z,14.48
2018-09-23T11:21:45.012Z,14.47
2018-09-23T11:22:44.887Z,14.45
2018-09-23T11:23:44.752Z,14.52
2018-09-23T11:24:45.360Z,14.54
2018-09-23T11:25:44.723Z,14.44
2018-09-23T11:26:44.738Z,14.42
2018-09-23T11:27:44.948Z,14.46
2018-09-23T11:28:44.756Z,14.38
2018-09-23T11:29:44.757Z,14.28
2018-09-23T11:30:45.311Z,14.39
2018-09-23T11:31:44.759Z,14.42
2018-09-23T11:32:44.714Z,14.47
2018-09-23T11:33:44.889Z,14.46
2018-09-23T11:34:45.061Z,14.48
2018-09-23T11:35:44.702Z,14.4
2018-09-23T11:36:44.869Z,14.34
2018-09-23T11:37:44.714Z,14.4
2018-09-23T11:38:44.720Z,14.42
2018-09-23T11:39:46.253Z,14.44
2018-09-23T11:40:44.689Z,14.41
2018-09-23T11:41:44.681Z,14.43
2018-09-23T11:42:44.957Z,14.44
2018-09-23T11:43:44.787Z,14.49
2018-09-23T11:44:44.968Z,14.44
2018-09-23T11:45:44.759Z,14.51
2018-09-23T11:46:44.707Z,14.55
2018-09-23T11:47:44.867Z,14.5
2018-09-23T11:48:44.788Z,14.53
2018-09-23T11:49:44.984Z,14.55
2018-09-23T11:50:44.882Z,14.56
2018-09-23T11:51:44.871Z,14.55
2018-09-23T11:52:44.708Z,14.64
2018-09-23T11:53:44.787Z,14.69
2018-09-23T11:54:44.850Z,14.69
2018-09-23T11:55:44.805Z,14.68
2018-09-23T11:56:45.105Z,14.68
2018-09-23T11:57:44.794Z,14.75
2018-09-23T11:58:45.288Z,14.78
2018-09-23T11:59:45.030Z,14.81
2018-09-23T12:00:44.903Z,14.81
2018-09-23T12:01:44.789Z,14.82
2018-09-23T12:02:44.991Z,14.85
2018-09-23T12:03:44.715Z,14.86
2018-09-23T12:04:44.691Z,14.88
2018-09-23T12:05:44.863Z,14.89
2018-09-23T12:06:44.888Z,14.92
2018-09-23T12:07:44.849Z,14.79
2018-09-23T12:08:44.771Z,14.77
2018-09-23T12:09:44.839Z,14.78
2018-09-23T12:10:44.887Z,14.69
2018-09-23T12:11:45.331Z,14.68
2018-09-23T12:12:44.785Z,14.71
2018-09-23T12:13:44.808Z,14.76
2018-09-23T12:14:45.328Z,14.74
2018-09-23T12:15:45.768Z,14.7
2018-09-23T12:16:44.677Z,14.62
2018-09-23T12:17:44.714Z,14.6
2018-09-23T12:18:44.808Z,14.61
2018-09-23T12:19:44.827Z,14.63
2018-09-23T12:20:45.393Z,14.7
2018-09-23T12:21:44.624Z,14.74
2018-09-23T12:22:44.863Z,14.7
2018-09-23T12:23:44.722Z,14.6
2018-09-23T12:24:44.656Z,14.61
2018-09-23T12:25:45.555Z,14.61
2018-09-23T12:26:44.761Z,14.53
2018-09-23T12:27:45.028Z,14.49
2018-09-23T12:28:44.659Z,14.47
2018-09-23T12:29:45.084Z,14.54
2018-09-23T12:30:44.658Z,14.59
2018-09-23T12:31:44.650Z,14.48
2018-09-23T12:32:44.655Z,14.48
2018-09-23T12:33:44.668Z,14.62
2018-09-23T12:34:44.763Z,14.62
2018-09-23T12:35:44.986Z,14.66
2018-09-23T12:36:44.707Z,14.54
2018-09-23T12:37:44.715Z,14.51
2018-09-23T12:38:44.874Z,14.31
2018-09-23T12:39:45.392Z,14.37
2018-09-23T12:40:44.667Z,14.44
2018-09-23T12:41:44.828Z,14.4
2018-09-23T12:42:44.618Z,14.33
2018-09-23T12:43:44.658Z,14.32
2018-09-23T12:44:44.696Z,14.33
2018-09-23T12:45:44.657Z,14.23
2018-09-23T12:46:44.641Z,14.24
2018-09-23T12:47:44.671Z,14.38
2018-09-23T12:48:44.955Z,14.42
2018-09-23T12:49:44.749Z,14.22
2018-09-23T12:50:45.295Z,14.12
2018-09-23T12:51:44.644Z,14.22
2018-09-23T12:52:44.622Z,14.25
2018-09-23T12:53:44.646Z,14.21
2018-09-23T12:54:44.605Z,14.26
2018-09-23T12:55:44.760Z,14.43
2018-09-23T12:56:44.635Z,14.48